createdAt,value
2022-12-01T00:00:06.769Z,101403.03
2022-12-01T00:05:08.526Z,101406.44
2022-12-01T00:10:26.636Z,101406.69
2022-12-01T00:15:30.736Z,101414.75
2022-12-01T00:20:35.569Z,101403.38
2022-12-01T00:25:37.039Z,101412.16
2022-12-01T00:30:38.449Z,101411.25
2022-12-01T00:35:39.857Z,101405.94
2022-12-01T00:40:41.283Z,101408.66
2022-12-01T00:45:43.205Z,101402.75
2022-12-01T00:50:45.187Z,101403.41
2022-12-01T00:55:46.755Z,101401.78
2022-12-01T01:00:48.635Z,101396.19
2022-12-01T01:05:50.122Z,101400.63
2022-12-01T01:10:51.635Z,101394.13
2022-12-01T01:16:22.780Z,101396.25
2022-12-01T01:21:26.033Z,101394.13
2022-12-01T01:26:32.694Z,101394.50
2022-12-01T01:31:35.097Z,101385.53
2022-12-01T01:36:36.516Z,101383.88
2022-12-01T01:41:38.439Z,101373.56
2022-12-01T01:46:39.857Z,101371.81
2022-12-01T01:51:46.728Z,101363.78
2022-12-01T01:56:51.055Z,101369.72
2022-12-01T02:02:02.170Z,101353.81
2022-12-01T02:07:05.378Z,101358.78
2022-12-01T02:12:15.796Z,101345.47
2022-12-01T02:17:29.195Z,101353.69
2022-12-01T02:23:04.265Z,101355.31
2022-12-01T02:28:30.194Z,101362.19
2022-12-01T02:33:38.292Z,101359.66
2022-12-01T02:38:51.546Z,101357.50
2022-12-01T02:44:12.788Z,101350.38
2022-12-01T02:49:19.927Z,101347.03
2022-12-01T02:54:23.300Z,101350.00
2022-12-01T02:59:24.821Z,101339.94
2022-12-01T03:04:51.624Z,101334.47
2022-12-01T03:10:17.290Z,101334.69
2022-12-01T03:15:37.403Z,101332.84
2022-12-01T03:20:59.091Z,101329.94
2022-12-01T03:26:03.824Z,101323.91
2022-12-01T03:31:10.510Z,101331.97
2022-12-01T03:36:22.713Z,101325.69
2022-12-01T03:41:30.721Z,101333.16
2022-12-01T03:46:44.742Z,101319.94
2022-12-01T03:52:00.960Z,101315.47
2022-12-01T03:57:08.316Z,101320.56
2022-12-01T04:02:09.879Z,101328.84
2022-12-01T04:07:13.806Z,101330.38
2022-12-01T04:12:30.199Z,101324.91
2022-12-01T04:17:31.753Z,101327.50
2022-12-01T04:22:33.814Z,101329.94
2022-12-01T04:27:36.029Z,101329.13
2022-12-01T04:32:39.833Z,101330.09
2022-12-01T04:37:41.249Z,101333.81
2022-12-01T04:42:42.723Z,101331.09
2022-12-01T04:47:44.204Z,101331.97
2022-12-01T04:52:46.602Z,101338.91
2022-12-01T04:57:48.223Z,101336.13
2022-12-01T05:02:49.641Z,101342.09
2022-12-01T05:07:51.230Z,101349.00
2022-12-01T05:12:52.860Z,101344.09
2022-12-01T05:17:54.295Z,101339.53
2022-12-01T05:23:08.095Z,101333.59
2022-12-01T05:28:10.417Z,101336.94
2022-12-01T05:33:11.913Z,101331.38
2022-12-01T05:38:13.414Z,101338.47
2022-12-01T05:43:14.846Z,101327.84
2022-12-01T05:48:17.826Z,101337.00
2022-12-01T05:53:20.045Z,101333.31
2022-12-01T05:58:22.439Z,101336.78
2022-12-01T06:03:23.941Z,101345.63
2022-12-01T06:08:25.617Z,101342.75
2022-12-01T06:13:27.120Z,101346.31
2022-12-01T06:18:31.754Z,101346.34
2022-12-01T06:23:33.583Z,101346.13
2022-12-01T06:28:35.246Z,101339.84
2022-12-01T06:33:36.667Z,101339.69
2022-12-01T06:38:38.141Z,101343.06
2022-12-01T06:43:39.565Z,101341.28
2022-12-01T06:48:41.068Z,101341.84
2022-12-01T06:53:42.487Z,101337.50
2022-12-01T06:58:43.911Z,101347.31
2022-12-01T07:03:52.067Z,101336.47
2022-12-01T07:08:53.491Z,101345.72
2022-12-01T07:13:56.714Z,101354.50
2022-12-01T07:18:59.992Z,101360.81
2022-12-01T07:24:01.478Z,101363.53
2022-12-01T07:29:02.901Z,101365.25
2022-12-01T07:34:05.117Z,101362.44
2022-12-01T07:39:08.172Z,101367.69
2022-12-01T07:44:10.714Z,101365.34
2022-12-01T07:49:14.855Z,101367.22
2022-12-01T07:54:17.622Z,101366.91
2022-12-01T07:59:19.137Z,101373.97
2022-12-01T08:04:20.562Z,101372.91
2022-12-01T08:09:22.032Z,101371.75
2022-12-01T08:14:23.507Z,101373.41
2022-12-01T08:19:25.884Z,101367.81
2022-12-01T08:24:27.553Z,101369.44
2022-12-01T08:29:28.965Z,101363.22
2022-12-01T08:34:30.401Z,101366.66
2022-12-01T08:39:31.887Z,101361.41
2022-12-01T08:44:33.406Z,101366.59
2022-12-01T08:49:35.116Z,101362.31
2022-12-01T08:54:36.540Z,101373.13
2022-12-01T08:59:38.014Z,101373.13
2022-12-01T09:04:39.467Z,101369.44
2022-12-01T09:09:40.926Z,101374.75
2022-12-01T09:14:49.522Z,101375.56
2022-12-01T09:19:51.403Z,101369.97
2022-12-01T09:24:53.103Z,101366.34
2022-12-01T09:29:54.525Z,101373.06
2022-12-01T09:34:55.931Z,101366.81
2022-12-01T09:39:57.339Z,101351.53
2022-12-01T09:45:02.647Z,101352.09
2022-12-01T09:50:11.780Z,101338.69
2022-12-01T09:55:16.216Z,101342.56
2022-12-01T10:00:21.648Z,101335.09
2022-12-01T10:05:26.671Z,101333.44
2022-12-01T10:10:36.444Z,101332.66
2022-12-01T10:15:47.210Z,101336.19
2022-12-01T10:21:00.387Z,101325.22
2022-12-01T10:26:14.108Z,101334.44
2022-12-01T10:31:20.912Z,101322.47
2022-12-01T10:36:23.304Z,101324.94
2022-12-01T10:41:27.946Z,101324.16
2022-12-01T10:46:47.451Z,101319.38
2022-12-01T10:51:51.741Z,101313.28
2022-12-01T10:56:56.809Z,101304.97
2022-12-01T11:02:00.470Z,101303.25
2022-12-01T11:07:03.330Z,101300.88
2022-12-01T11:12:05.070Z,101298.09
2022-12-01T11:17:31.346Z,101296.50
2022-12-01T11:22:33.278Z,101290.88
2022-12-01T11:27:49.420Z,101289.34
2022-12-01T11:32:55.163Z,101287.78
2022-12-01T11:38:28.388Z,101281.22
2022-12-01T11:43:21.316Z,101296.59
2022-12-01T11:48:26.791Z,101297.50
2022-12-01T11:53:34.624Z,101291.34
2022-12-01T11:58:36.255Z,101292.00
2022-12-01T12:03:51.095Z,101293.22
2022-12-01T12:09:04.755Z,101286.66
2022-12-01T12:14:29.906Z,101276.25
2022-12-01T12:25:44.229Z,101278.84
2022-12-01T12:31:26.759Z,101279.13
2022-12-01T12:36:50.063Z,101289.16
2022-12-01T12:41:56.285Z,101279.00
2022-12-01T12:47:00.569Z,101290.50
2022-12-01T12:52:08.861Z,101280.69
2022-12-01T12:57:45.716Z,101282.75
2022-12-01T13:03:17.127Z,101277.88
2022-12-01T13:08:28.548Z,101301.28
2022-12-01T13:13:48.278Z,101291.84
2022-12-01T13:18:55.091Z,101289.16
2022-12-01T13:23:57.044Z,101291.34
2022-12-01T13:28:58.787Z,101302.50
2022-12-01T13:34:03.439Z,101302.41
2022-12-01T13:39:17.172Z,101301.53
2022-12-01T13:44:25.678Z,101296.50
2022-12-01T13:49:53.771Z,101304.47
2022-12-01T13:55:12.335Z,101299.63
2022-12-01T14:00:27.831Z,101297.78
2022-12-01T14:05:54.990Z,101301.34
2022-12-01T14:11:05.338Z,101291.75
2022-12-01T14:16:08.187Z,101301.63
2022-12-01T14:21:12.409Z,101303.34
2022-12-01T14:26:16.114Z,101304.19
2022-12-01T14:31:17.641Z,101303.25
2022-12-01T14:36:37.585Z,101297.56
2022-12-01T14:41:52.832Z,101307.91
2022-12-01T14:47:32.510Z,101295.44
2022-12-01T14:52:38.589Z,101295.25
2022-12-01T14:57:45.690Z,101292.56
2022-12-01T15:02:52.835Z,101291.66
2022-12-01T15:08:18.626Z,101288.84
2022-12-01T15:13:30.807Z,101289.63
2022-12-01T15:18:36.897Z,101276.19
2022-12-01T15:24:03.110Z,101269.09
2022-12-01T15:29:45.520Z,101272.25
2022-12-01T15:34:50.766Z,101281.53
2022-12-01T15:40:43.115Z,101261.28
2022-12-01T15:45:22.508Z,101277.00
2022-12-01T15:50:33.575Z,101270.94
2022-12-01T15:55:37.577Z,101268.38
2022-12-01T16:00:39.127Z,101270.81
2022-12-01T16:05:44.158Z,101274.25
2022-12-01T16:10:46.048Z,101274.19
2022-12-01T16:15:47.454Z,101270.66
2022-12-01T16:20:50.108Z,101273.22
2022-12-01T16:25:51.849Z,101284.09
2022-12-01T16:30:53.948Z,101286.09
2022-12-01T16:35:55.629Z,101286.94
2022-12-01T16:40:59.907Z,101282.16
2022-12-01T16:46:03.602Z,101277.91
2022-12-01T16:51:07.750Z,101280.69
2022-12-01T16:56:12.630Z,101282.66
2022-12-01T17:01:14.234Z,101282.44
2022-12-01T17:06:18.138Z,101283.31
2022-12-01T17:11:19.700Z,101290.78
2022-12-01T17:16:21.258Z,101282.00
2022-12-01T17:21:22.728Z,101282.75
2022-12-01T17:26:24.250Z,101281.06
2022-12-01T17:31:25.749Z,101286.50
2022-12-01T17:36:27.263Z,101283.63
2022-12-01T17:41:32.532Z,101289.81
2022-12-01T17:46:34.166Z,101271.09
2022-12-01T17:51:36.689Z,101273.25
2022-12-01T17:56:38.115Z,101261.22
2022-12-01T18:01:41.168Z,101264.84
2022-12-01T18:06:42.986Z,101272.28
2022-12-01T18:11:44.501Z,101272.38
2022-12-01T18:16:45.927Z,101273.41
2022-12-01T18:21:47.701Z,101284.66
2022-12-01T18:26:49.173Z,101279.13
2022-12-01T18:31:52.575Z,101275.34
2022-12-01T18:36:54.028Z,101280.44
2022-12-01T18:41:55.459Z,101272.44
2022-12-01T18:46:57.777Z,101281.97
2022-12-01T18:52:00.317Z,101279.44
2022-12-01T18:57:01.733Z,101280.34
2022-12-01T19:02:03.269Z,101277.78
2022-12-01T19:07:04.735Z,101274.56
2022-12-01T19:12:06.567Z,101276.47
2022-12-01T19:17:08.053Z,101272.94
2022-12-01T19:22:09.483Z,101266.44
2022-12-01T19:27:10.924Z,101260.19
2022-12-01T19:32:12.364Z,101266.72
2022-12-01T19:37:13.894Z,101266.06
2022-12-01T19:42:15.340Z,101264.75
2022-12-01T19:47:21.948Z,101270.09
2022-12-01T19:52:23.939Z,101268.53
2022-12-01T19:57:25.402Z,101277.66
2022-12-01T20:02:29.375Z,101272.56
2022-12-01T20:07:31.116Z,101274.84
2022-12-01T20:12:34.493Z,101267.56
2022-12-01T20:17:37.868Z,101270.56
2022-12-01T20:22:39.589Z,101266.81
2022-12-01T20:27:42.312Z,101272.94
2022-12-01T20:32:43.767Z,101269.66
2022-12-01T20:37:45.261Z,101261.97
2022-12-01T20:42:46.692Z,101269.94
2022-12-01T20:47:48.123Z,101262.69
2022-12-01T20:52:49.618Z,101249.75
2022-12-01T20:57:51.399Z,101261.09
2022-12-01T21:02:52.957Z,101262.34
2022-12-01T21:07:54.732Z,101266.78
2022-12-01T21:13:18.824Z,101265.34
2022-12-01T21:18:22.629Z,101256.50
2022-12-01T21:23:27.002Z,101252.41
2022-12-01T21:28:29.670Z,101255.69
2022-12-01T21:33:33.111Z,101252.81
2022-12-01T21:38:34.586Z,101257.66
2022-12-01T21:43:38.411Z,101258.31
2022-12-01T21:48:40.574Z,101254.31
2022-12-01T21:53:42.049Z,101253.91
2022-12-01T21:58:43.917Z,101254.63
2022-12-01T22:03:47.769Z,101253.94
2022-12-01T22:08:54.860Z,101247.84
2022-12-01T22:13:59.288Z,101250.16
2022-12-01T22:19:15.800Z,101236.03
2022-12-01T22:24:20.514Z,101244.22
2022-12-01T22:29:35.926Z,101232.88
2022-12-01T22:34:38.112Z,101247.28
2022-12-01T22:39:40.135Z,101244.47
2022-12-01T22:44:44.919Z,101234.44
2022-12-01T22:49:46.396Z,101232.69
2022-12-01T22:54:50.135Z,101240.13
2022-12-01T22:59:52.154Z,101240.13
2022-12-01T23:04:59.825Z,101223.97
2022-12-01T23:10:12.047Z,101230.38
2022-12-01T23:15:24.270Z,101223.34
2022-12-01T23:20:32.279Z,101223.34
2022-12-01T23:25:35.158Z,101215.69
2022-12-01T23:30:39.244Z,101213.03
2022-12-01T23:35:57.872Z,101201.44
2022-12-01T23:41:01.705Z,101199.19
2022-12-01T23:46:05.962Z,101209.13
2022-12-01T23:51:19.749Z,101196.28
2022-12-01T23:56:24.314Z,101203.81
